createdAt,value
2022-11-13T00:00:57.240Z,1.48
2022-11-13T00:03:23.678Z,1.49
2022-11-13T00:05:58.486Z,1.50
2022-11-13T00:08:25.403Z,1.49
2022-11-13T00:10:52.105Z,1.48
2022-11-13T00:13:18.603Z,1.46
2022-11-13T00:15:45.031Z,1.45
2022-11-13T00:18:11.478Z,1.41
2022-11-13T00:20:37.968Z,1.36
2022-11-13T00:26:33.132Z,1.19
2022-11-13T00:32:21.258Z,1.10
2022-11-13T00:34:48.563Z,1.07
2022-11-13T00:37:15.194Z,1.04
2022-11-13T00:43:11.165Z,1.04
2022-11-13T00:45:37.699Z,1.10
2022-11-13T00:48:04.181Z,1.15
2022-11-13T00:50:30.681Z,1.20
2022-11-13T00:52:57.139Z,1.20
2022-11-13T00:55:23.594Z,1.18
2022-11-13T00:57:50.060Z,1.15
2022-11-13T01:00:16.772Z,1.11
2022-11-13T01:02:43.230Z,1.09
2022-11-13T01:05:09.949Z,1.08
2022-11-13T01:07:37.534Z,1.09
2022-11-13T01:10:07.353Z,1.10
2022-11-13T01:12:33.865Z,1.09
2022-11-13T01:15:00.326Z,1.06
2022-11-13T01:17:26.944Z,1.04
2022-11-13T01:19:53.354Z,1.03
2022-11-13T01:22:19.857Z,1.00
2022-11-13T01:24:46.562Z,1.01
2022-11-13T01:27:13.336Z,1.01
2022-11-13T01:29:39.916Z,1.02
2022-11-13T01:32:06.417Z,1.05
2022-11-13T01:34:32.947Z,1.10
2022-11-13T01:36:59.403Z,1.11
2022-11-13T01:39:25.837Z,1.14
2022-11-13T01:41:52.274Z,1.16
2022-11-13T01:44:18.947Z,1.18
2022-11-13T01:46:55.455Z,1.20
2022-11-13T01:49:25.085Z,1.20
2022-11-13T01:51:54.552Z,1.20
2022-11-13T01:54:22.141Z,1.20
2022-11-13T01:56:48.698Z,1.19
2022-11-13T01:59:25.785Z,1.18
2022-11-13T02:01:52.313Z,1.15
2022-11-13T02:04:18.828Z,1.14
2022-11-13T02:06:49.441Z,1.09
2022-11-13T02:09:16.408Z,1.08
2022-11-13T02:11:42.887Z,1.05
2022-11-13T02:14:09.469Z,1.04
2022-11-13T02:16:36.123Z,1.02
2022-11-13T02:19:06.944Z,1.03
2022-11-13T02:21:38.226Z,1.04
2022-11-13T02:24:13.835Z,1.00
2022-11-13T02:26:40.306Z,0.98
2022-11-13T02:29:06.799Z,0.97
2022-11-13T02:31:33.233Z,0.98
2022-11-13T02:34:01.638Z,0.97
2022-11-13T02:36:28.070Z,0.97
2022-11-13T02:38:54.537Z,1.00
2022-11-13T02:41:21.011Z,1.03
2022-11-13T02:43:47.504Z,1.02
2022-11-13T02:46:14.051Z,1.02
2022-11-13T02:48:40.503Z,1.02
2022-11-13T02:51:06.953Z,1.02
2022-11-13T02:53:33.380Z,1.01
2022-11-13T02:55:59.910Z,0.99
2022-11-13T02:58:26.814Z,0.98
2022-11-13T03:00:53.615Z,1.00
2022-11-13T03:03:47.856Z,1.01
2022-11-13T03:09:28.330Z,0.99
2022-11-13T03:11:54.752Z,1.01
2022-11-13T03:14:21.647Z,1.01
2022-11-13T03:16:48.191Z,1.00
2022-11-13T03:19:14.626Z,1.00
2022-11-13T03:21:41.084Z,1.01
2022-11-13T03:24:07.513Z,1.00
2022-11-13T03:26:33.947Z,0.99
2022-11-13T03:32:27.898Z,0.98
2022-11-13T03:34:54.372Z,0.97
2022-11-13T03:37:20.808Z,0.96
2022-11-13T03:39:47.236Z,0.95
2022-11-13T03:42:13.685Z,0.95
2022-11-13T03:44:40.118Z,0.96
2022-11-13T03:47:06.600Z,0.94
2022-11-13T03:49:33.056Z,0.96
2022-11-13T03:51:59.501Z,0.95
2022-11-13T03:54:25.950Z,0.94
2022-11-13T03:56:52.505Z,0.93
2022-11-13T03:59:18.956Z,0.93
2022-11-13T04:01:45.409Z,0.94
2022-11-13T04:04:11.972Z,0.95
2022-11-13T04:06:38.465Z,0.96
2022-11-13T04:09:05.161Z,0.96
2022-11-13T04:11:31.620Z,0.94
2022-11-13T04:13:58.093Z,0.94
2022-11-13T04:16:24.569Z,0.94
2022-11-13T04:18:51.063Z,0.93
2022-11-13T04:21:17.541Z,0.91
2022-11-13T04:23:43.992Z,0.90
2022-11-13T04:26:10.471Z,0.88
2022-11-13T04:28:36.907Z,0.87
2022-11-13T04:31:03.363Z,0.86
2022-11-13T04:33:29.827Z,0.88
2022-11-13T04:35:56.309Z,0.89
2022-11-13T04:38:22.752Z,0.89
2022-11-13T04:40:49.927Z,0.89
2022-11-13T04:43:16.378Z,0.91
2022-11-13T04:45:42.927Z,0.91
2022-11-13T04:48:09.375Z,0.91
2022-11-13T04:50:35.802Z,0.92
2022-11-13T04:53:02.207Z,0.93
2022-11-13T04:55:28.678Z,0.93
2022-11-13T04:57:55.656Z,0.92
2022-11-13T05:00:22.250Z,0.92
2022-11-13T05:02:48.795Z,0.92
2022-11-13T05:05:15.313Z,0.91
2022-11-13T05:07:42.716Z,0.91
2022-11-13T05:10:09.477Z,0.93
2022-11-13T05:12:35.971Z,0.95
2022-11-13T05:15:02.519Z,0.96
2022-11-13T05:17:29.017Z,0.95
2022-11-13T05:19:55.520Z,0.96
2022-11-13T05:22:21.979Z,0.95
2022-11-13T05:24:48.428Z,0.96
2022-11-13T05:27:17.456Z,0.96
2022-11-13T05:29:44.243Z,0.96
2022-11-13T05:32:10.726Z,0.99
2022-11-13T05:34:37.228Z,1.00
2022-11-13T05:37:03.654Z,0.99
2022-11-13T05:39:30.131Z,1.01
2022-11-13T05:41:56.581Z,1.03
2022-11-13T05:44:23.027Z,1.02
2022-11-13T05:46:49.525Z,1.02
2022-11-13T05:49:15.974Z,1.02
2022-11-13T05:51:42.414Z,0.99
2022-11-13T05:54:08.887Z,0.98
2022-11-13T05:56:35.689Z,0.96
2022-11-13T05:59:02.214Z,0.95
2022-11-13T06:01:32.837Z,0.94
2022-11-13T06:03:59.588Z,0.96
2022-11-13T06:06:26.444Z,0.98
2022-11-13T06:08:53.168Z,0.96
2022-11-13T06:11:20.523Z,0.95
2022-11-13T06:13:47.147Z,0.95
2022-11-13T06:16:14.465Z,0.98
2022-11-13T06:18:41.463Z,1.01
2022-11-13T06:21:09.078Z,1.06
2022-11-13T06:23:36.014Z,1.08
2022-11-13T06:26:12.432Z,1.13
2022-11-13T06:28:38.930Z,1.17
2022-11-13T06:31:13.025Z,1.17
2022-11-13T06:33:39.600Z,1.21
2022-11-13T06:36:06.690Z,1.26
2022-11-13T06:38:33.582Z,1.29
2022-11-13T06:41:00.264Z,1.32
2022-11-13T06:43:26.941Z,1.34
2022-11-13T06:45:53.631Z,1.37
2022-11-13T06:48:20.214Z,1.39
2022-11-13T06:50:48.596Z,1.42
2022-11-13T06:53:15.599Z,1.46
2022-11-13T06:55:43.187Z,1.47
2022-11-13T06:58:09.754Z,1.53
2022-11-13T07:00:37.623Z,1.55
2022-11-13T07:03:05.458Z,1.58
2022-11-13T07:05:31.869Z,1.63
2022-11-13T07:07:58.292Z,1.67
2022-11-13T07:10:24.831Z,1.73
2022-11-13T07:12:54.718Z,1.78
2022-11-13T07:15:21.437Z,1.79
2022-11-13T07:17:47.910Z,1.83
2022-11-13T07:20:14.444Z,1.93
2022-11-13T07:22:41.111Z,1.99
2022-11-13T07:25:07.899Z,2.06
2022-11-13T07:27:34.352Z,2.17
2022-11-13T07:30:03.569Z,2.35
2022-11-13T07:32:30.620Z,2.61
2022-11-13T07:34:57.099Z,3.03
2022-11-13T07:37:23.586Z,3.60
2022-11-13T07:39:50.112Z,4.34
2022-11-13T07:42:18.123Z,5.27
2022-11-13T07:44:59.915Z,6.36
2022-11-13T07:47:26.543Z,7.41
2022-11-13T07:49:55.352Z,7.82
2022-11-13T07:52:26.181Z,8.16
2022-11-13T07:54:52.645Z,8.36
2022-11-13T07:57:20.928Z,8.48
2022-11-13T07:59:47.380Z,8.63
2022-11-13T08:02:14.302Z,-144.82
2022-11-13T08:04:40.768Z,-144.82
2022-11-13T08:07:07.508Z,8.63
2022-11-13T08:09:34.157Z,-144.82
2022-11-13T08:12:00.612Z,-144.82
2022-11-13T08:14:27.314Z,-144.82
2022-11-13T08:16:53.834Z,-144.82
2022-11-13T08:19:20.325Z,-144.82
2022-11-13T08:21:46.817Z,-144.82
2022-11-13T08:27:35.206Z,-144.82
2022-11-13T08:30:01.664Z,-144.82
2022-11-13T08:32:28.148Z,-144.82
2022-11-13T08:34:54.652Z,-144.82
2022-11-13T08:37:21.128Z,-144.82
2022-11-13T08:39:47.623Z,-144.82
2022-11-13T08:42:14.271Z,-144.82
2022-11-13T08:44:40.680Z,-144.82
2022-11-13T08:47:07.193Z,-144.82
2022-11-13T08:49:33.708Z,-144.82
2022-11-13T08:55:21.945Z,-144.82
2022-11-13T08:57:48.430Z,-144.82
2022-11-13T09:00:15.104Z,-144.82
2022-11-13T09:02:41.996Z,-144.82
2022-11-13T09:05:08.559Z,-144.82
2022-11-13T09:07:35.010Z,-144.82
2022-11-13T09:10:01.526Z,-144.82
2022-11-13T09:12:27.932Z,-144.82
2022-11-13T09:14:54.442Z,-144.82
2022-11-13T09:17:20.985Z,-144.82
2022-11-13T09:19:47.626Z,-144.82
2022-11-13T09:22:14.097Z,-144.82
2022-11-13T09:24:40.534Z,-144.82
2022-11-13T09:27:06.970Z,-144.82
2022-11-13T09:29:34.097Z,-144.82
2022-11-13T09:32:01.972Z,-144.82
2022-11-13T09:34:28.523Z,-144.82
2022-11-13T09:36:54.950Z,-144.82
2022-11-13T09:39:21.838Z,-144.82
2022-11-13T09:41:50.292Z,-144.82
2022-11-13T09:44:39.135Z,-144.82
2022-11-13T09:47:05.578Z,-144.82
2022-11-13T09:49:36.480Z,-144.82
2022-11-13T09:52:08.957Z,-144.82
2022-11-13T09:54:35.402Z,-144.82
2022-11-13T09:57:11.301Z,-144.82
2022-11-13T09:59:40.089Z,-144.82
2022-11-13T10:02:12.763Z,-144.82
2022-11-13T10:04:54.654Z,-144.82
2022-11-13T10:07:24.728Z,-144.82
2022-11-13T10:10:02.273Z,-144.82
2022-11-13T10:12:29.035Z,-144.82
2022-11-13T10:14:55.788Z,-144.82
2022-11-13T10:17:22.250Z,-144.82
2022-11-13T10:19:57.723Z,-144.82
2022-11-13T10:22:44.544Z,-144.82
2022-11-13T10:25:11.752Z,-144.82
2022-11-13T10:27:38.697Z,-144.82
2022-11-13T10:30:15.788Z,-144.82
2022-11-13T10:32:42.342Z,-144.82
2022-11-13T10:35:08.878Z,-144.82
2022-11-13T10:37:35.534Z,-144.82
2022-11-13T10:40:01.975Z,-144.82
2022-11-13T10:42:29.635Z,-144.82
2022-11-13T10:44:57.199Z,-144.82
2022-11-13T10:47:49.186Z,-144.82
2022-11-13T10:50:22.812Z,-144.82
2022-11-13T10:52:49.960Z,-144.82
2022-11-13T10:55:24.829Z,-144.82
2022-11-13T10:57:56.464Z,-144.82
2022-11-13T11:00:24.648Z,-144.82
2022-11-13T11:02:51.129Z,-144.82
2022-11-13T11:05:18.628Z,-144.82
2022-11-13T11:07:45.119Z,-144.82
2022-11-13T11:10:19.215Z,-144.82
2022-11-13T11:12:51.289Z,-144.82
2022-11-13T11:15:25.198Z,-144.82
2022-11-13T11:17:52.360Z,-144.82
2022-11-13T11:20:23.944Z,-144.82
2022-11-13T11:22:52.377Z,-144.82
2022-11-13T11:25:51.901Z,-144.82
2022-11-13T11:28:27.611Z,-144.82
2022-11-13T11:30:58.223Z,-144.82
2022-11-13T11:33:33.041Z,-144.82
2022-11-13T11:36:09.267Z,-144.82
2022-11-13T11:38:35.767Z,-144.82
2022-11-13T11:41:15.015Z,-144.82
2022-11-13T11:43:46.947Z,-144.82
2022-11-13T11:46:13.717Z,-144.82
2022-11-13T11:48:40.563Z,-144.82
2022-11-13T11:51:07.038Z,-144.82
2022-11-13T11:53:56.867Z,-144.82
2022-11-13T11:56:28.038Z,-144.82
2022-11-13T11:58:57.583Z,-144.82
2022-11-13T12:01:43.783Z,-144.82
2022-11-13T12:04:28.679Z,-144.82
2022-11-13T12:07:05.894Z,-144.82
2022-11-13T12:09:36.815Z,-144.82
2022-11-13T12:12:07.738Z,-144.82
2022-11-13T12:14:52.609Z,-144.82
2022-11-13T12:17:19.190Z,-144.82
2022-11-13T12:19:50.468Z,-144.82
2022-11-13T12:22:30.703Z,-144.82
2022-11-13T12:25:00.525Z,-144.82
2022-11-13T12:27:39.392Z,-144.82
2022-11-13T12:30:11.995Z,-144.82
2022-11-13T12:32:44.626Z,-144.82
2022-11-13T12:35:18.350Z,-144.82
2022-11-13T12:37:47.991Z,-144.82
2022-11-13T12:40:28.837Z,-144.82
2022-11-13T12:46:23.541Z,-144.82
2022-11-13T12:48:49.993Z,-144.82
2022-11-13T12:51:17.355Z,-144.82
2022-11-13T12:53:53.853Z,-144.82
2022-11-13T12:56:20.320Z,-144.82
2022-11-13T13:02:07.566Z,-144.82
2022-11-13T13:04:52.842Z,-144.82
2022-11-13T13:07:23.057Z,-144.82
2022-11-13T13:09:55.752Z,-144.82
2022-11-13T13:12:34.439Z,-144.82
2022-11-13T13:15:19.728Z,-144.82
2022-11-13T13:17:46.218Z,-144.82
2022-11-13T13:20:12.638Z,-144.82
2022-11-13T13:22:39.185Z,-144.82
2022-11-13T13:25:10.591Z,-144.82
2022-11-13T13:27:39.857Z,-144.82
2022-11-13T13:30:16.629Z,-144.82
2022-11-13T13:33:06.537Z,-144.82
2022-11-13T13:35:32.949Z,-144.82
2022-11-13T13:38:05.534Z,-144.82
2022-11-13T13:40:37.730Z,-144.82
2022-11-13T13:43:04.143Z,-144.82
2022-11-13T13:45:33.617Z,-144.82
2022-11-13T13:48:00.193Z,-144.82
2022-11-13T13:50:28.182Z,-144.82
2022-11-13T13:52:56.090Z,-144.82
2022-11-13T13:55:25.778Z,-144.82
2022-11-13T13:57:52.445Z,-144.82
2022-11-13T14:00:19.177Z,-144.82
2022-11-13T14:02:46.304Z,-144.82
2022-11-13T14:05:25.473Z,-144.82
2022-11-13T14:07:51.981Z,-144.82
2022-11-13T14:10:20.399Z,-144.82
2022-11-13T14:12:46.996Z,-144.82
2022-11-13T14:15:25.874Z,-144.82
2022-11-13T14:17:52.346Z,-144.82
2022-11-13T14:20:18.938Z,-144.82
2022-11-13T14:22:47.018Z,-144.82
2022-11-13T14:25:22.547Z,-144.82
2022-11-13T14:27:49.393Z,-144.82
2022-11-13T14:30:25.918Z,-144.82
2022-11-13T14:32:52.395Z,-144.82
2022-11-13T14:35:23.120Z,-144.82
2022-11-13T14:37:49.672Z,-144.82
2022-11-13T14:40:19.465Z,-144.82
2022-11-13T14:42:46.932Z,-144.82
2022-11-13T14:45:17.893Z,-144.82
2022-11-13T14:47:44.392Z,-144.82
2022-11-13T14:50:20.627Z,-144.82
2022-11-13T14:53:03.970Z,-144.82
2022-11-13T14:55:31.491Z,-144.82
2022-11-13T14:57:58.080Z,-144.82
2022-11-13T15:00:32.149Z,-144.82
2022-11-13T15:02:59.028Z,-144.82
2022-11-13T15:05:25.752Z,-144.82
2022-11-13T15:07:52.719Z,9.65
2022-11-13T15:10:20.032Z,-144.82
2022-11-13T15:12:46.565Z,-144.82
2022-11-13T15:15:17.008Z,-144.82
2022-11-13T15:17:44.559Z,-144.82
2022-11-13T15:20:29.466Z,-144.82
2022-11-13T15:22:56.708Z,-144.82
2022-11-13T15:25:23.749Z,-144.82
2022-11-13T15:27:50.317Z,-144.82
2022-11-13T15:30:16.950Z,-144.82
2022-11-13T15:32:43.420Z,-144.82
2022-11-13T15:35:13.384Z,-144.82
2022-11-13T15:37:39.951Z,-144.82
2022-11-13T15:40:06.617Z,-144.82
2022-11-13T15:42:33.427Z,-144.82
2022-11-13T15:44:59.939Z,-144.82
2022-11-13T15:47:30.335Z,-144.82
2022-11-13T15:50:12.963Z,-144.82
2022-11-13T15:52:40.383Z,-144.82
2022-11-13T15:55:07.358Z,-144.82
2022-11-13T15:57:33.847Z,-144.82
2022-11-13T16:00:00.344Z,-144.82
2022-11-13T16:02:27.564Z,-144.82
2022-11-13T16:04:57.137Z,6.54
2022-11-13T16:07:26.051Z,6.39
2022-11-13T16:09:52.557Z,6.24
2022-11-13T16:12:19.156Z,6.14
2022-11-13T16:14:45.617Z,6.05
2022-11-13T16:17:19.940Z,5.96
2022-11-13T16:19:46.746Z,5.84
2022-11-13T16:22:16.470Z,5.78
2022-11-13T16:24:44.225Z,5.70
2022-11-13T16:27:12.704Z,5.63
2022-11-13T16:29:39.379Z,5.59
2022-11-13T16:32:05.937Z,5.59
2022-11-13T16:34:32.431Z,5.54
2022-11-13T16:36:58.903Z,5.51
2022-11-13T16:39:26.802Z,5.51
2022-11-13T16:41:53.509Z,5.54
2022-11-13T16:44:19.976Z,5.56
2022-11-13T16:46:46.493Z,5.56
2022-11-13T16:49:16.850Z,5.57
2022-11-13T16:51:43.395Z,5.46
2022-11-13T16:54:09.968Z,5.32
2022-11-13T16:56:36.416Z,5.24
2022-11-13T16:59:02.881Z,5.14
2022-11-13T17:01:29.497Z,5.04
2022-11-13T17:03:56.066Z,4.87
2022-11-13T17:06:26.671Z,4.72
2022-11-13T17:08:53.702Z,4.61
2022-11-13T17:11:20.215Z,4.51
2022-11-13T17:13:50.746Z,4.47
2022-11-13T17:16:17.642Z,4.45
2022-11-13T17:18:44.111Z,4.40
2022-11-13T17:21:11.385Z,4.33
2022-11-13T17:23:37.966Z,4.28
2022-11-13T17:26:04.874Z,4.21
2022-11-13T17:28:31.467Z,4.14
2022-11-13T17:31:03.099Z,4.12
2022-11-13T17:33:30.134Z,4.13
2022-11-13T17:35:56.910Z,4.14
2022-11-13T17:38:23.531Z,4.15
2022-11-13T17:40:50.263Z,4.17
2022-11-13T17:43:16.784Z,4.12
2022-11-13T17:45:43.342Z,4.09
2022-11-13T17:48:09.910Z,4.04
2022-11-13T17:50:36.422Z,4.00
2022-11-13T17:53:03.068Z,3.97
2022-11-13T17:55:29.601Z,3.94
2022-11-13T17:57:58.633Z,3.91
2022-11-13T18:00:25.181Z,3.87
2022-11-13T18:02:51.721Z,3.85
2022-11-13T18:05:18.291Z,3.84
2022-11-13T18:07:44.837Z,3.86
2022-11-13T18:10:11.378Z,3.87
2022-11-13T18:12:38.463Z,3.87
2022-11-13T18:15:05.941Z,3.85
2022-11-13T18:17:32.420Z,3.84
2022-11-13T18:20:02.015Z,3.84
2022-11-13T18:22:29.020Z,3.83
2022-11-13T18:24:55.528Z,3.84
2022-11-13T18:27:21.957Z,3.83
2022-11-13T18:29:48.487Z,3.76
2022-11-13T18:32:14.989Z,3.70
2022-11-13T18:34:41.483Z,3.59
2022-11-13T18:37:08.084Z,3.55
2022-11-13T18:39:34.544Z,3.56
2022-11-13T18:42:01.210Z,3.59
2022-11-13T18:44:27.753Z,3.62
2022-11-13T18:46:54.240Z,3.61
2022-11-13T18:49:20.887Z,3.57
2022-11-13T18:51:47.357Z,3.52
2022-11-13T18:54:14.919Z,3.50
2022-11-13T18:56:41.915Z,3.49
2022-11-13T18:59:09.265Z,3.49
2022-11-13T19:01:38.239Z,3.50
2022-11-13T19:04:23.176Z,3.46
2022-11-13T19:06:50.650Z,3.38
2022-11-13T19:09:17.175Z,3.37
2022-11-13T19:11:43.579Z,3.33
2022-11-13T19:14:11.268Z,3.29
2022-11-13T19:16:38.120Z,3.25
2022-11-13T19:19:05.467Z,3.21
2022-11-13T19:21:32.399Z,3.20
2022-11-13T19:23:59.756Z,3.18
2022-11-13T19:26:26.247Z,3.13
2022-11-13T19:28:52.932Z,3.11
2022-11-13T19:31:21.828Z,3.11
2022-11-13T19:33:48.493Z,3.06
2022-11-13T19:36:16.218Z,3.06
2022-11-13T19:38:42.932Z,3.06
2022-11-13T19:41:09.621Z,3.02
2022-11-13T19:43:37.546Z,3.01
2022-11-13T19:46:07.514Z,2.98
2022-11-13T19:48:35.151Z,2.98
2022-11-13T19:51:06.600Z,2.96
2022-11-13T19:53:35.456Z,2.95
2022-11-13T19:56:01.898Z,2.91
2022-11-13T19:58:29.354Z,-144.82
2022-11-13T20:00:57.211Z,-144.82
2022-11-13T20:03:24.637Z,-144.82
2022-11-13T20:05:54.823Z,-144.82
2022-11-13T20:08:25.389Z,-144.82
2022-11-13T20:10:54.482Z,-144.82
2022-11-13T20:13:20.925Z,-144.82
2022-11-13T20:15:54.630Z,2.64
2022-11-13T20:18:21.118Z,2.61
2022-11-13T20:20:53.403Z,2.62
2022-11-13T20:23:21.342Z,2.60
2022-11-13T20:26:06.894Z,-144.82
2022-11-13T20:28:33.470Z,-144.82
2022-11-13T20:31:06.844Z,-144.82
2022-11-13T20:33:34.700Z,-144.82
2022-11-13T20:36:01.888Z,-144.82
2022-11-13T20:38:28.940Z,-144.82
2022-11-13T20:40:55.677Z,-144.82
2022-11-13T20:43:22.271Z,-144.82
2022-11-13T20:45:48.841Z,-144.82
2022-11-13T20:48:15.933Z,-144.82
2022-11-13T20:50:42.499Z,-144.82
2022-11-13T20:53:08.966Z,-144.82
2022-11-13T20:55:35.631Z,-144.82
2022-11-13T20:58:02.158Z,-144.82
2022-11-13T21:00:28.691Z,-144.82
2022-11-13T21:02:55.393Z,-144.82
2022-11-13T21:05:21.887Z,-144.82
2022-11-13T21:07:48.387Z,-144.82
2022-11-13T21:10:15.069Z,-144.82
2022-11-13T21:12:41.612Z,-144.82
2022-11-13T21:15:08.333Z,-144.82
2022-11-13T21:17:34.875Z,-144.82
2022-11-13T21:20:01.459Z,-144.82
2022-11-13T21:22:27.954Z,-144.82
2022-11-13T21:24:54.638Z,-144.82
2022-11-13T21:27:21.137Z,-144.82
2022-11-13T21:29:47.670Z,-144.82
2022-11-13T21:32:14.146Z,-144.82
2022-11-13T21:34:41.983Z,-144.82
2022-11-13T21:37:10.557Z,-144.82
2022-11-13T21:39:38.384Z,-144.82
2022-11-13T21:42:05.013Z,-144.82
2022-11-13T21:44:32.084Z,-144.82
2022-11-13T21:46:58.678Z,-144.82
2022-11-13T21:49:25.172Z,-144.82
2022-11-13T21:51:51.640Z,-144.82
2022-11-13T21:54:18.176Z,-144.82
2022-11-13T21:56:44.642Z,-144.82
2022-11-13T21:59:11.179Z,-144.82
2022-11-13T22:01:38.800Z,-144.82
2022-11-13T22:04:05.823Z,-144.82
2022-11-13T22:06:32.930Z,-144.82
2022-11-13T22:09:00.224Z,-144.82
2022-11-13T22:11:27.651Z,-144.82
2022-11-13T22:13:54.271Z,-144.82
2022-11-13T22:16:20.912Z,-144.82
2022-11-13T22:18:47.454Z,-144.82
2022-11-13T22:21:14.786Z,-144.82
2022-11-13T22:23:41.346Z,-144.82
2022-11-13T22:29:29.639Z,-144.82
2022-11-13T22:31:56.056Z,-144.82
2022-11-13T22:34:22.569Z,-144.82
2022-11-13T22:37:01.296Z,-144.82
2022-11-13T22:39:27.735Z,-144.82
2022-11-13T22:41:54.249Z,-144.82
2022-11-13T22:44:20.777Z,-144.82
2022-11-13T22:46:47.208Z,-144.82
2022-11-13T22:49:13.671Z,-144.82
2022-11-13T22:51:41.271Z,-144.82
2022-11-13T22:54:11.339Z,-144.82
2022-11-13T22:56:38.543Z,-144.82
2022-11-13T22:59:06.071Z,-144.82
2022-11-13T23:01:33.387Z,-144.82
2022-11-13T23:04:00.786Z,-144.82
2022-11-13T23:06:28.015Z,-144.82
2022-11-13T23:08:54.497Z,-144.82
2022-11-13T23:11:21.946Z,-144.82
2022-11-13T23:13:49.626Z,-144.82
2022-11-13T23:16:16.320Z,-144.82
2022-11-13T23:18:42.786Z,-144.82
2022-11-13T23:21:10.008Z,-144.82
2022-11-13T23:23:36.478Z,-144.82
2022-11-13T23:26:03.253Z,-144.82
2022-11-13T23:28:29.975Z,-144.82
2022-11-13T23:30:56.767Z,-144.82
2022-11-13T23:33:23.203Z,-144.82
2022-11-13T23:35:49.738Z,-144.82
2022-11-13T23:38:16.228Z,-144.82
2022-11-13T23:40:42.726Z,-144.82
2022-11-13T23:44:06.605Z,-144.82
2022-11-13T23:46:18.662Z,-144.82
2022-11-13T23:48:45.135Z,-144.82
2022-11-13T23:51:11.588Z,-144.82
2022-11-13T23:53:38.035Z,-144.82
2022-11-13T23:56:04.712Z,-144.82
2022-11-13T23:58:32.473Z,-144.82
